Flight Track Log - Related Links

Times and Time Zones

All times are in EDT time to prevent confusion due to time zone crossing. See the BYA227 flight status page for this flight to view local times or setup timezone preferences in your user account.

Time Position Orientation Groundspeed Altitude Reporting Facility
EDT Latitude Longitude Course Direction KTS MPH feet Rate Location/Type
Mon 03:44:23 PM 35.9050 -112.2922 253° West 162 186 9,100  Level Los Angeles Center
Mon 03:45:25 PM 35.8881 -112.3625 253° West 174 200 10,100 816 Climbing Los Angeles Center
Mon 03:46:28 PM 35.8725 -112.4244 253° West 186 214 10,800 672 Climbing Los Angeles Center
Mon 03:47:30 PM 35.8558 -112.4847 251° West 191 220 11,500 677 Climbing Los Angeles Center
Mon 03:48:32 PM 35.8411 -112.5475 254° West 193 222 12,200 726 Climbing Los Angeles Center
Mon 03:49:34 PM 35.8211 -112.6244 252° West 198 228 13,000 677 Climbing Los Angeles Center
Mon 03:50:36 PM 35.8078 -112.6881 256° West 195 224 13,600 581 Climbing Los Angeles Center
Mon 03:51:38 PM 35.7914 -112.7514 252° West 196 226 14,200 581 Climbing Los Angeles Center
Mon 03:52:40 PM 35.7764 -112.8150 254° West 195 224 14,800 629 Climbing Los Angeles Center
Mon 03:53:42 PM 35.7619 -112.8783 254° West 194 223 15,500 528 Climbing Los Angeles Center
Mon 03:54:45 PM 35.7417 -112.9531 252° West 194 223 15,900 192 Climbing Los Angeles Center
Mon 03:55:47 PM 35.7233 -113.0219 252° West 210 242 15,900  Level Los Angeles Center
Mon 03:56:49 PM 35.7036 -113.0958 252° West 227 261 15,900  Level Los Angeles Center
Mon 03:57:51 PM 35.6806 -113.1819 252° West 230 265 15,900  Level Los Angeles Center
Mon 03:58:54 PM 35.6575 -113.2578 250° West 233 268 15,900 -95 Level Los Angeles Center
Mon 03:59:57 PM 35.6347 -113.3375 251° West 241 277 15,700  Descending Los Angeles Center
Mon 04:01:11 PM 35.6153 -113.4161 253° West 243 280 15,900 44 Climbing Los Angeles Center
Mon 04:02:13 PM 35.5897 -113.5103 252° West 244 281 15,800 -48 Descending Los Angeles Center
Mon 04:03:15 PM 35.5633 -113.6064 251° West 249 287 15,800 48 Level Los Angeles Center
Mon 04:04:18 PM 35.5431 -113.6889 253° West 254 292 15,900 48 Climbing Los Angeles Center
Mon 04:05:20 PM 35.5208 -113.7694 251° West 252 290 15,900  Level Los Angeles Center
Mon 04:06:22 PM 35.5006 -113.8506 253° West 252 290 15,900 -48 Level Los Angeles Center
Mon 04:07:24 PM 35.4775 -113.9306 251° West 251 289 15,800  Descending Los Angeles Center
Mon 04:08:26 PM 35.4511 -114.0278 252° West 252 290 15,900 97 Climbing Los Angeles Center
Mon 04:09:28 PM 35.4272 -114.1164 252° West 255 293 16,000 145 Climbing Los Angeles Center
Mon 04:10:30 PM 35.4067 -114.1953 252° West 247 284 16,200 97 Climbing Los Angeles Center
Mon 04:11:32 PM 35.3853 -114.2767 252° West 250 288 16,200  Level Los Angeles Center
Mon 04:12:35 PM 35.3633 -114.3586 252° West 253 291 16,200  Level Los Angeles Center
Mon 04:13:37 PM 35.3411 -114.4406 252° West 253 291 16,200  Level Los Angeles Center
Mon 04:14:39 PM 35.3186 -114.5222 251° West 254 292 16,200  Level Los Angeles Center
Mon 04:15:41 PM 35.2914 -114.6208 251° West 254 292 16,200  Level Los Angeles Center
Mon 04:16:43 PM 35.2708 -114.7042 253° West 255 293 16,200  Level Los Angeles Center
Mon 04:17:45 PM 35.2497 -114.7878 253° West 257 296 16,200  Level Los Angeles Center
Mon 04:18:47 PM 35.2289 -114.8706 253° West 256 295 16,200  Level Los Angeles Center
Mon 04:19:49 PM 35.2072 -114.9525 252° West 254 292 16,200  Level Los Angeles Center
Mon 04:20:52 PM 35.1844 -115.0344 251° West 254 292 16,200  Level Los Angeles Center
Mon 04:21:54 PM 35.1600 -115.1325 253° West 252 290 16,200  Level Los Angeles Center
Mon 04:22:56 PM 35.1375 -115.2150 252° West 255 293 16,200  Level Los Angeles Center
Mon 04:23:58 PM 35.1167 -115.2881 251° West 256 295 16,200  Level Los Angeles Center
Mon 04:25:00 PM 35.0947 -115.3692 252° West 254 292 16,200  Level Los Angeles Center
Mon 04:26:02 PM 35.0692 -115.4675 252° West 254 292 16,200  Level Los Angeles Center
Mon 04:27:04 PM 35.0481 -115.5503 253° West 254 292 16,200 -48 Level Los Angeles Center
Mon 04:28:06 PM 35.0272 -115.6336 253° West 257 296 16,100 -48 Descending Los Angeles Center
Mon 04:29:09 PM 35.0067 -115.7158 253° West 255 293 16,100  Level Los Angeles Center
Mon 04:30:11 PM 34.9867 -115.7989 254° West 255 293 16,100  Level Los Angeles Center
Mon 04:31:13 PM 34.9608 -115.8961 252° West 253 291 16,100  Level Los Angeles Center
Mon 04:32:15 PM 34.9383 -115.9775 251° West 253 291 16,100 -48 Level Los Angeles Center
Mon 04:33:17 PM 34.9156 -116.0606 252° West 256 295 16,000 -48 Descending Los Angeles Center
Mon 04:34:19 PM 34.8903 -116.1422 249° West 256 295 16,000 48 Level Los Angeles Center
Mon 04:35:21 PM 34.8669 -116.2239 251° West 257 296 16,100  Climbing Los Angeles Center
Mon 04:36:23 PM 34.8453 -116.3072 252° West 258 297 16,000 -48 Descending Los Angeles Center
Mon 04:37:26 PM 34.8175 -116.4050 251° West 256 295 16,000 48 Level Los Angeles Center
Mon 04:38:28 PM 34.7819 -116.4792 240° Southwest 262 302 16,100  Climbing Los Angeles Center
Mon 04:39:30 PM 34.7350 -116.5386 226° Southwest 249 287 16,000  Descending Los Angeles Center
Mon 04:40:32 PM 34.6856 -116.5992 225° Southwest 251 289 16,100  Climbing Los Angeles Center
Mon 04:41:34 PM 34.6394 -116.6631 229° Southwest 251 289 16,000 -242 Descending Los Angeles Center
Mon 04:42:36 PM 34.5917 -116.7281 228° Southwest 255 293 15,600 -435 Descending Los Angeles Center
Mon 04:43:38 PM 34.5267 -116.8011 223° Southwest 263 303 15,100 -532 Descending Los Angeles Center
Mon 04:44:40 PM 34.4711 -116.8614 222° Southwest 267 307 14,500 -629 Descending Los Angeles Center
Mon 04:45:42 PM 34.4175 -116.9239 224° Southwest 266 306 13,800 -672 Descending Los Angeles Center
Mon 04:46:45 PM 34.3653 -116.9864 225° Southwest 264 304 13,100 -624 Descending Los Angeles Center
Mon 04:47:47 PM 34.3133 -117.0472 224° Southwest 261 300 12,500 -484 Descending Los Angeles Center
Mon 04:48:49 PM 34.2608 -117.1136 226° Southwest 270 311 12,100 -629 Descending Los Angeles Center
Mon 04:49:51 PM 34.1861 -117.1708 212° Southwest 268 308 11,200 -677 Descending Los Angeles Center
Mon 04:50:53 PM 34.1317 -117.2283 221° Southwest 270 311 10,700 -606 Descending Los Angeles Center
Mon 04:51:30 PM 34.0833 -117.2667 213° Southwest 274 315 10,200 -680 Descending Southern California TRACON
Mon 04:52:30 PM 34.0333 -117.3333 228° Southwest 276 318 9,600 -650 Descending Southern California TRACON
Mon 04:53:30 PM 33.9833 -117.3833 220° Southwest 278 320 8,900 -650 Descending Southern California TRACON
Mon 04:54:30 PM 33.9167 -117.4500 220° Southwest 276 318 8,300 -526 Descending Southern California TRACON
Mon 04:55:24 PM 33.8667 -117.5000 220° Southwest 250 288 7,900 -191 Descending Southern California TRACON
Mon 04:56:04 PM 33.8406 -117.5364 229° Southwest 251 289 8,000 -118 Climbing Los Angeles Center
Mon 04:57:06 PM 33.7961 -117.5914 226° Southwest 238 274 7,700 -629 Descending Los Angeles Center
Mon 04:58:08 PM 33.7658 -117.6619 243° Southwest 238 274 6,700 -1,016 Descending Los Angeles Center
Mon 04:59:10 PM 33.7392 -117.7367 247° West 241 277 5,600 -1,113 Descending Los Angeles Center
Mon 05:00:12 PM 33.7194 -117.8125 253° West 240 276 4,400 -1,210 Descending Los Angeles Center
Mon 05:01:14 PM 33.6939 -117.8992 251° West 235 270 3,100 -823 Descending Los Angeles Center
Mon 05:02:16 PM 33.6778 -117.9658 254° West 220 253 2,700 -641 Descending Los Angeles Center
Mon 05:03:25 PM 33.7167 -118.0167 313° West 169 194 1,700 -512 Descending Southern California TRACON
Mon 05:04:25 PM 33.7500 -118.0667 309° West 166 191 1,600 -300 Descending Southern California TRACON
Mon 05:05:25 PM 33.7667 -118.1000 301° West 135 155 1,100 -550 Descending Southern California TRACON
Mon 05:06:25 PM 33.8000 -118.1167 337° Northwest 127 146 500 -448 Descending Southern California TRACON
Mon 05:07:39 PM 33.8178 -118.1506 302° West 109 125 100 -324 Descending Los Angeles Center

Login

Don't have an account? Register now (free) for customized features, flight alerts, and more!